Time;durP1;ratioP1;P1;durP2;ratioP2;P2;SDS_P1;SDS_P2;PMS_P1;PMS_P2;Temp;Humidity;BMP_temperature;BMP_pressure;BME280_temperature;BME280_humidity;BME280_pressure;Samples;Min_cycle;Max_cycle;Signal;HPM_P1;HPM_P2
2023/10/05 00:02:10;;;;;;;6.37;2.90;;;15.40;99.90;;;;;;5029696;28;20619;-80
2023/10/05 00:04:41;;;;;;;8.70;3.40;;;15.40;99.90;;;;;;5025853;28;20675;-81
2023/10/05 00:07:17;;;;;;;5.43;2.50;;;15.40;99.90;;;;;;5033985;28;20637;-80
2023/10/05 00:09:43;;;;;;;11.73;3.07;;;15.40;99.90;;;;;;5040520;28;20591;-80
2023/10/05 00:12:18;;;;;;;4.13;3.00;;;15.40;99.90;;;;;;5028743;28;20627;-80
2023/10/05 00:14:48;;;;;;;7.47;2.90;;;15.40;99.90;;;;;;5022665;28;20213;-80
2023/10/05 00:17:18;;;;;;;6.60;2.60;;;15.40;99.90;;;;;;5039692;28;21113;-80
2023/10/05 00:19:44;;;;;;;8.80;2.90;;;15.40;99.90;;;;;;5048240;28;20936;-80
2023/10/05 00:22:11;;;;;;;4.37;2.67;;;15.40;99.90;;;;;;5028587;28;20592;-80
2023/10/05 00:24:37;;;;;;;7.73;2.23;;;15.50;99.90;;;;;;5042884;28;20296;-80
2023/10/05 00:27:09;;;;;;;6.87;3.20;;;15.50;99.90;;;;;;5011397;28;20591;-80
2023/10/05 00:29:41;;;;;;;7.73;2.80;;;15.50;99.90;;;;;;5013543;28;20611;-79
2023/10/05 00:35:10;;;;;;;7.67;2.70;;;15.50;99.90;;;;;;5044397;28;20615;-80
2023/10/05 00:37:36;;;;;;;5.63;2.53;;;15.50;99.90;;;;;;5038334;28;20671;-79
2023/10/05 00:40:04;;;;;;;6.40;2.90;;;15.50;99.90;;;;;;5042823;28;21183;-79
2023/10/05 00:42:30;;;;;;;5.33;3.13;;;15.60;99.90;;;;;;5024087;28;20646;-79
2023/10/05 00:45:00;;;;;;;5.53;2.47;;;15.60;99.90;;;;;;5026044;28;20665;-79
2023/10/05 00:47:27;;;;;;;9.47;3.90;;;15.60;99.90;;;;;;5032477;28;20981;-80
2023/10/05 00:49:53;;;;;;;7.33;2.97;;;15.60;99.90;;;;;;5044140;28;21040;-79
2023/10/05 00:52:25;;;;;;;8.50;2.87;;;15.60;99.90;;;;;;5009625;28;20708;-80
2023/10/05 00:54:55;;;;;;;8.73;2.90;;;15.60;99.90;;;;;;5044064;28;20630;-80
2023/10/05 00:57:22;;;;;;;6.67;2.90;;;15.60;99.90;;;;;;5017640;28;20588;-81
2023/10/05 01:02:35;;;;;;;7.90;3.37;;;15.60;99.90;;;;;;5025706;28;20725;-80
2023/10/05 01:05:09;;;;;;;6.77;3.13;;;15.60;99.90;;;;;;5014229;28;20665;-81
2023/10/05 01:12:51;;;;;;;6.43;3.10;;;15.70;99.90;;;;;;5024518;28;20631;-81
2023/10/05 01:15:19;;;;;;;6.80;3.20;;;15.70;99.90;;;;;;5020476;28;20707;-80
2023/10/05 01:17:47;;;;;;;6.10;2.30;;;15.70;99.90;;;;;;5030074;28;20621;-80
2023/10/05 01:22:46;;;;;;;7.30;3.67;;;15.70;99.90;;;;;;5013583;28;20685;-80
2023/10/05 01:25:14;;;;;;;6.80;2.43;;;15.70;99.90;;;;;;5020630;28;20612;-79
2023/10/05 01:27:50;;;;;;;10.37;3.50;;;15.70;99.90;;;;;;5032930;28;20678;-79
2023/10/05 01:30:19;;;;;;;8.37;3.30;;;15.70;99.90;;;;;;5033157;28;20745;-80
2023/10/05 01:32:47;;;;;;;8.43;3.27;;;15.70;99.90;;;;;;5013964;28;20666;-80
2023/10/05 01:35:14;;;;;;;7.20;3.43;;;15.70;99.90;;;;;;5021633;28;20631;-80
2023/10/05 01:37:41;;;;;;;12.37;3.70;;;15.70;99.90;;;;;;5023062;28;21149;-79
2023/10/05 01:40:20;;;;;;;4.93;2.07;;;15.70;99.90;;;;;;5033176;28;20584;-79
2023/10/05 01:42:47;;;;;;;6.50;3.20;;;15.70;99.90;;;;;;5030688;28;20583;-80
2023/10/05 01:45:22;;;;;;;4.03;2.10;;;15.70;99.90;;;;;;5019807;28;20669;-80
2023/10/05 01:47:49;;;;;;;6.13;3.07;;;15.80;99.90;;;;;;5005334;28;20618;-80
2023/10/05 01:50:37;;;;;;;7.77;2.33;;;15.80;99.90;;;;;;5015840;28;21052;-80
2023/10/05 01:53:08;;;;;;;9.00;2.70;;;15.80;99.90;;;;;;5005738;28;20603;-80
2023/10/05 01:55:35;;;;;;;5.23;2.30;;;15.90;99.90;;;;;;5039200;28;20622;-79
2023/10/05 01:58:03;;;;;;;3.60;2.40;;;15.90;99.90;;;;;;5008529;28;20588;-80
2023/10/05 02:00:31;;;;;;;7.53;2.47;;;15.90;99.90;;;;;;5008915;28;20676;-80
2023/10/05 02:03:00;;;;;;;5.60;3.50;;;16.00;99.90;;;;;;5051214;28;21012;-79
2023/10/05 02:05:30;;;;;;;4.67;1.93;;;16.00;99.90;;;;;;5032588;28;20650;-80
2023/10/05 02:07:57;;;;;;;6.30;2.40;;;16.00;99.90;;;;;;5027618;28;20587;-80
2023/10/05 02:10:26;;;;;;;5.77;2.20;;;16.10;99.90;;;;;;5003587;28;20587;-80
2023/10/05 02:12:54;;;;;;;5.07;2.37;;;16.10;99.90;;;;;;5027700;28;20681;-80
2023/10/05 02:15:29;;;;;;;3.23;1.73;;;16.20;99.90;;;;;;5027593;28;20611;-80
2023/10/05 02:17:56;;;;;;;9.27;2.00;;;16.20;99.90;;;;;;5020067;28;20571;-80
2023/10/05 02:20:38;;;;;;;4.50;1.90;;;16.20;99.90;;;;;;5011137;28;20583;-80
2023/10/05 02:23:23;;;;;;;7.83;3.00;;;16.20;99.90;;;;;;5035882;28;20618;-81
2023/10/05 02:25:57;;;;;;;7.77;2.73;;;16.20;99.90;;;;;;5027311;28;21188;-80
2023/10/05 02:28:25;;;;;;;5.60;2.00;;;16.20;99.90;;;;;;5023878;28;20619;-81
2023/10/05 02:30:55;;;;;;;9.83;2.57;;;16.20;99.90;;;;;;5035629;28;20579;-81
2023/10/05 02:33:27;;;;;;;8.63;1.80;;;16.20;99.90;;;;;;5010927;28;20610;-80
2023/10/05 02:35:59;;;;;;;4.60;2.10;;;16.20;99.90;;;;;;5049751;28;20616;-79
2023/10/05 02:38:25;;;;;;;8.23;2.10;;;16.10;99.90;;;;;;5023446;28;20610;-79
2023/10/05 02:41:03;;;;;;;4.17;2.00;;;16.10;99.90;;;;;;5027464;28;20575;-79
2023/10/05 02:43:29;;;;;;;5.53;1.80;;;16.10;99.90;;;;;;5080470;22;20790;-77
2023/10/05 02:46:10;;;;;;;5.67;1.93;;;16.00;99.90;;;;;;5057215;28;20610;-77
2023/10/05 02:48:41;;;;;;;8.57;2.07;;;16.00;99.90;;;;;;5040534;28;20632;-76
2023/10/05 02:51:10;;;;;;;5.13;1.90;;;16.00;99.90;;;;;;5031880;28;21026;-77
2023/10/05 02:53:46;;;;;;;6.80;1.83;;;15.90;99.90;;;;;;5056004;28;20607;-76
2023/10/05 02:56:27;;;;;;;6.23;1.87;;;15.90;99.90;;;;;;5063135;28;20924;-78
2023/10/05 02:58:55;;;;;;;5.10;1.83;;;15.90;99.90;;;;;;5037861;28;20670;-77
2023/10/05 03:01:26;;;;;;;3.20;1.90;;;15.90;99.90;;;;;;5041636;28;20613;-76
2023/10/05 03:03:54;;;;;;;5.63;2.03;;;15.90;99.90;;;;;;5067061;28;20610;-76
2023/10/05 03:06:23;;;;;;;4.27;1.87;;;15.80;99.90;;;;;;5057325;28;20934;-76
2023/10/05 03:08:49;;;;;;;6.67;1.70;;;15.80;99.90;;;;;;5074036;28;20587;-76
2023/10/05 03:11:18;;;;;;;5.57;1.93;;;15.70;99.90;;;;;;5049703;28;21009;-77
2023/10/05 03:13:46;;;;;;;7.77;2.30;;;15.70;99.90;;;;;;5054253;28;20666;-76
2023/10/05 03:16:12;;;;;;;5.30;1.87;;;15.70;99.90;;;;;;5050388;28;20588;-76
2023/10/05 03:18:43;;;;;;;5.87;2.27;;;15.70;99.90;;;;;;5036727;28;20594;-76
2023/10/05 03:21:13;;;;;;;6.67;2.10;;;15.60;99.90;;;;;;5050836;28;20949;-77
2023/10/05 03:23:43;;;;;;;4.97;1.93;;;15.60;99.90;;;;;;5036416;28;20611;-76
2023/10/05 03:26:16;;;;;;;3.70;1.50;;;15.60;99.90;;;;;;5038894;28;20583;-77
2023/10/05 03:28:42;;;;;;;5.33;1.87;;;15.60;99.90;;;;;;5048261;28;20590;-77
2023/10/05 03:31:29;;;;;;;4.10;2.00;;;15.60;99.90;;;;;;5055889;28;20699;-77
2023/10/05 03:33:55;;;;;;;3.43;1.40;;;15.60;99.90;;;;;;5027899;28;20618;-79
2023/10/05 03:36:20;;;;;;;5.50;2.03;;;15.50;99.90;;;;;;5064115;28;21313;-76
2023/10/05 03:38:55;;;;;;;6.93;2.27;;;15.50;99.90;;;;;;5068611;28;20268;-77
2023/10/05 03:41:25;;;;;;;11.57;1.97;;;15.50;99.90;;;;;;5035560;28;20917;-76
2023/10/05 03:43:55;;;;;;;5.47;1.27;;;15.50;99.90;;;;;;5059050;28;21084;-76
2023/10/05 03:46:25;;;;;;;4.73;1.70;;;15.50;99.90;;;;;;5049943;28;20960;-76
2023/10/05 03:49:01;;;;;;;9.80;1.87;;;15.60;99.90;;;;;;5072210;28;20935;-76
2023/10/05 03:51:30;;;;;;;5.73;1.90;;;15.60;99.90;;;;;;5049139;28;20636;-77
2023/10/05 03:53:57;;;;;;;2.37;1.30;;;15.60;99.90;;;;;;5024287;28;20610;-77
2023/10/05 03:56:27;;;;;;;5.17;1.27;;;15.60;99.90;;;;;;5068908;28;20571;-77
2023/10/05 03:58:54;;;;;;;3.60;1.57;;;15.60;99.90;;;;;;5036409;28;20181;-77
2023/10/05 04:01:22;;;;;;;3.80;1.20;;;15.60;99.90;;;;;;5051159;28;20671;-76
2023/10/05 04:03:49;;;;;;;6.20;1.30;;;15.60;99.90;;;;;;5036819;28;20826;-76
2023/10/05 04:06:23;;;;;;;3.70;1.40;;;15.60;99.90;;;;;;5039004;28;20984;-77
2023/10/05 04:08:57;;;;;;;3.80;1.50;;;15.60;99.90;;;;;;5074548;28;20798;-76
2023/10/05 04:11:26;;;;;;;3.43;1.20;;;15.60;99.90;;;;;;5043165;28;20643;-77
2023/10/05 04:13:53;;;;;;;6.90;1.77;;;15.60;99.90;;;;;;5071876;28;20730;-77
2023/10/05 04:16:28;;;;;;;6.10;1.50;;;15.60;99.90;;;;;;5053597;28;20589;-77
2023/10/05 04:18:54;;;;;;;3.90;1.73;;;15.60;99.90;;;;;;5048521;28;20586;-77
2023/10/05 04:21:23;;;;;;;5.00;1.30;;;15.70;99.90;;;;;;5057183;28;20643;-77
2023/10/05 04:23:52;;;;;;;3.07;1.40;;;15.70;99.90;;;;;;5040613;28;20621;-77
2023/10/05 04:26:22;;;;;;;3.63;1.87;;;15.70;99.90;;;;;;5068590;28;20580;-77
2023/10/05 04:28:52;;;;;;;4.43;1.50;;;15.70;99.90;;;;;;5073157;28;20582;-77
2023/10/05 04:31:25;;;;;;;2.53;1.40;;;15.70;99.90;;;;;;5057373;28;20634;-78
2023/10/05 04:33:55;;;;;;;5.27;1.50;;;15.70;99.90;;;;;;5055540;28;20622;-77
2023/10/05 04:36:24;;;;;;;5.00;1.40;;;15.70;99.90;;;;;;5057386;28;20575;-77
2023/10/05 04:38:53;;;;;;;3.77;1.83;;;15.70;99.90;;;;;;5046101;28;20579;-77
2023/10/05 04:41:28;;;;;;;5.73;1.40;;;15.70;99.90;;;;;;5050386;28;20570;-76
2023/10/05 04:43:55;;;;;;;4.53;1.50;;;15.70;99.90;;;;;;5056103;28;20737;-77
2023/10/05 04:46:21;;;;;;;5.20;2.13;;;15.70;99.90;;;;;;5055658;28;20578;-77
2023/10/05 04:48:56;;;;;;;5.00;1.33;;;15.70;99.90;;;;;;5074377;28;20622;-77
2023/10/05 04:51:24;;;;;;;5.30;1.50;;;15.70;99.90;;;;;;5055753;28;20634;-77
2023/10/05 04:53:54;;;;;;;6.63;1.53;;;15.60;99.90;;;;;;5038280;28;20611;-76
2023/10/05 05:04:52;;;;;;;5.70;2.40;;;15.50;99.90;;;;;;5074630;28;20970;-77
2023/10/05 05:07:22;;;;;;;3.53;1.30;;;15.50;99.90;;;;;;5047758;28;20578;-77
2023/10/05 05:09:50;;;;;;;3.73;1.63;;;15.50;99.90;;;;;;5047736;28;20606;-76
2023/10/05 05:12:16;;;;;;;3.50;1.60;;;15.50;99.90;;;;;;5029567;28;20631;-76
2023/10/05 05:14:45;;;;;;;5.10;1.20;;;15.50;99.90;;;;;;5053928;28;20599;-76
2023/10/05 05:17:23;;;;;;;5.00;1.67;;;15.40;99.90;;;;;;5052266;28;20950;-76
2023/10/05 05:19:52;;;;;;;5.50;1.70;;;15.40;99.90;;;;;;5052872;28;20585;-76
2023/10/05 05:22:18;;;;;;;3.90;1.40;;;15.40;99.90;;;;;;5055632;28;20586;-77
2023/10/05 05:24:45;;;;;;;2.70;1.10;;;15.40;99.90;;;;;;5054823;28;20998;-77
2023/10/05 05:29:44;;;;;;;3.63;1.20;;;15.40;99.90;;;;;;5076974;28;20608;-76
2023/10/05 05:32:19;;;;;;;4.87;1.80;;;15.40;99.90;;;;;;5069148;28;20729;-76
2023/10/05 05:34:45;;;;;;;3.70;1.40;;;15.40;99.90;;;;;;5076375;28;20980;-76
2023/10/05 05:37:25;;;;;;;4.57;1.40;;;15.40;99.90;;;;;;5063555;28;20578;-76
2023/10/05 05:39:53;;;;;;;3.00;1.60;;;15.40;99.90;;;;;;5039966;28;20582;-76
2023/10/05 05:42:19;;;;;;;5.80;1.30;;;15.40;99.90;;;;;;5075823;28;20591;-76
2023/10/05 05:44:45;;;;;;;7.23;1.53;;;15.40;99.90;;;;;;5057595;28;20710;-76
2023/10/05 05:47:14;;;;;;;4.07;0.90;;;15.40;99.90;;;;;;5046675;28;20677;-76
2023/10/05 05:49:40;;;;;;;4.67;1.30;;;15.40;99.90;;;;;;5054510;28;20598;-76
2023/10/05 05:52:08;;;;;;;3.63;1.40;;;15.50;99.90;;;;;;5068327;28;20658;-76
2023/10/05 05:54:37;;;;;;;9.03;1.57;;;15.50;99.90;;;;;;5075884;28;20983;-77
2023/10/05 05:57:06;;;;;;;4.00;1.10;;;15.50;99.90;;;;;;5057301;28;20678;-77
2023/10/05 05:59:34;;;;;;;8.73;1.73;;;15.50;99.90;;;;;;5076623;28;20582;-76
2023/10/05 06:02:03;;;;;;;6.07;1.70;;;15.60;99.90;;;;;;5055630;28;20590;-76
2023/10/05 06:04:32;;;;;;;3.47;1.50;;;15.60;99.90;;;;;;5037401;28;20623;-77
2023/10/05 06:07:00;;;;;;;7.30;1.30;;;15.60;99.90;;;;;;5036321;28;20937;-77
2023/10/05 06:09:29;;;;;;;4.30;1.50;;;15.60;99.90;;;;;;5072707;28;20583;-77
2023/10/05 06:11:55;;;;;;;3.73;1.67;;;15.70;99.90;;;;;;5069285;28;20741;-76
2023/10/05 06:14:21;;;;;;;5.30;1.27;;;15.70;99.90;;;;;;5051549;28;20638;-76
2023/10/05 06:16:48;;;;;;;3.50;1.30;;;15.70;99.90;;;;;;5074876;28;21016;-76
2023/10/05 06:19:14;;;;;;;3.37;1.23;;;15.80;99.90;;;;;;5073848;28;20570;-75
2023/10/05 06:21:39;;;;;;;3.43;1.30;;;15.80;99.90;;;;;;5073716;28;21370;-76
2023/10/05 06:24:05;;;;;;;2.90;1.30;;;15.90;99.90;;;;;;5055464;28;20249;-75
2023/10/05 06:26:31;;;;;;;6.67;1.33;;;15.90;99.90;;;;;;5073200;28;20271;-75
2023/10/05 06:28:57;;;;;;;5.70;1.70;;;16.00;99.90;;;;;;5073590;28;20574;-75
2023/10/05 06:31:23;;;;;;;3.70;1.20;;;16.00;99.90;;;;;;5043622;28;20207;-76
2023/10/05 06:33:49;;;;;;;3.90;1.30;;;16.00;99.90;;;;;;5026944;28;20792;-76
2023/10/05 06:36:14;;;;;;;3.10;1.30;;;16.10;99.90;;;;;;5061541;28;20583;-76
2023/10/05 06:38:41;;;;;;;3.67;1.90;;;16.10;99.90;;;;;;5061508;28;20177;-76
2023/10/05 06:41:07;;;;;;;5.30;1.40;;;16.20;99.90;;;;;;5037576;28;20195;-75
2023/10/05 06:43:36;;;;;;;3.23;1.20;;;16.20;99.90;;;;;;5067031;28;21263;-76
2023/10/05 06:46:17;;;;;;;5.57;2.20;;;16.30;99.90;;;;;;5038991;28;20180;-76
2023/10/05 06:48:43;;;;;;;4.00;1.43;;;16.30;99.90;;;;;;5055302;28;20949;-76
2023/10/05 06:51:09;;;;;;;7.07;2.93;;;16.40;99.90;;;;;;5073042;28;20633;-76
2023/10/05 06:53:37;;;;;;;3.60;1.40;;;16.40;99.90;;;;;;5044793;28;20986;-76
2023/10/05 06:56:03;;;;;;;4.87;1.23;;;16.50;99.90;;;;;;5045646;28;20586;-76
2023/10/05 06:58:29;;;;;;;4.00;1.57;;;16.50;99.90;;;;;;5073451;28;20590;-76
2023/10/05 07:00:54;;;;;;;4.43;1.40;;;16.60;99.90;;;;;;5055310;28;20601;-76
2023/10/05 07:03:20;;;;;;;4.93;1.40;;;16.70;99.90;;;;;;5055311;28;20188;-77
2023/10/05 07:05:47;;;;;;;4.07;1.43;;;16.70;99.90;;;;;;5073267;28;20176;-76
2023/10/05 07:08:14;;;;;;;4.60;1.53;;;16.80;99.90;;;;;;5065254;28;21165;-76
2023/10/05 07:10:41;;;;;;;5.43;1.20;;;16.80;99.90;;;;;;5056946;28;20583;-76
2023/10/05 07:13:09;;;;;;;5.07;1.50;;;16.90;99.90;;;;;;5043207;28;20673;-76
2023/10/05 07:15:35;;;;;;;3.73;1.50;;;16.90;99.90;;;;;;5035047;28;20609;-76
2023/10/05 07:18:01;;;;;;;4.73;1.30;;;17.00;99.90;;;;;;5076643;28;20885;-76
2023/10/05 07:20:27;;;;;;;3.13;1.10;;;17.00;99.90;;;;;;5049795;28;20579;-75
2023/10/05 07:22:54;;;;;;;5.80;2.00;;;17.00;99.90;;;;;;5026077;28;20670;-75
2023/10/05 07:25:21;;;;;;;5.00;1.63;;;17.10;99.90;;;;;;5039279;28;20172;-75
2023/10/05 07:27:47;;;;;;;2.50;1.10;;;17.10;99.90;;;;;;5055565;28;20603;-75
2023/10/05 07:30:14;;;;;;;5.40;1.30;;;17.20;99.90;;;;;;5054432;28;20933;-75
2023/10/05 07:32:40;;;;;;;7.23;1.57;;;17.20;99.90;;;;;;5071297;28;21086;-76
2023/10/05 07:35:07;;;;;;;10.63;1.60;;;17.30;99.90;;;;;;5072198;28;20594;-74
2023/10/05 07:37:34;;;;;;;6.00;1.87;;;17.30;99.90;;;;;;5071940;28;20590;-75
2023/10/05 07:40:00;;;;;;;5.83;1.53;;;17.40;99.90;;;;;;5072089;28;20728;-75
2023/10/05 07:42:28;;;;;;;4.00;1.50;;;17.40;99.90;;;;;;5034175;28;21222;-75
2023/10/05 07:44:54;;;;;;;3.10;1.10;;;17.40;99.90;;;;;;5061368;28;20915;-76
2023/10/05 07:47:21;;;;;;;2.97;1.00;;;17.50;99.90;;;;;;5053658;28;20589;-75
2023/10/05 07:49:47;;;;;;;5.17;1.50;;;17.50;99.90;;;;;;5053930;28;20964;-75
2023/10/05 07:52:14;;;;;;;6.33;1.67;;;17.60;99.90;;;;;;5053612;28;20646;-76
2023/10/05 07:54:40;;;;;;;8.33;1.47;;;17.70;99.90;;;;;;5071861;28;20172;-75
2023/10/05 07:57:11;;;;;;;5.00;1.70;;;17.70;99.90;;;;;;5071326;28;20626;-75
2023/10/05 07:59:40;;;;;;;4.20;1.37;;;17.80;99.90;;;;;;5037124;28;20666;-74
2023/10/05 08:02:07;;;;;;;3.10;1.27;;;17.90;99.90;;;;;;5071383;28;20940;-75
2023/10/05 08:04:33;;;;;;;4.63;1.37;;;18.00;99.90;;;;;;5071563;28;20606;-76
2023/10/05 08:06:59;;;;;;;6.13;1.17;;;18.10;99.90;;;;;;5063137;28;21136;-75
2023/10/05 08:09:27;;;;;;;7.83;1.37;;;18.20;99.90;;;;;;5053683;28;20582;-74
2023/10/05 08:11:56;;;;;;;3.77;1.40;;;18.30;99.90;;;;;;5063000;28;20707;-74
2023/10/05 08:14:25;;;;;;;9.00;2.50;;;18.50;99.90;;;;;;5053532;28;20599;-74
2023/10/05 08:16:51;;;;;;;9.33;2.40;;;18.70;99.90;;;;;;5053660;28;20957;-73
2023/10/05 08:19:19;;;;;;;4.20;1.73;;;18.90;99.90;;;;;;5071298;28;20639;-74
2023/10/05 08:21:46;;;;;;;4.70;1.40;;;19.20;99.90;;;;;;5053585;28;20625;-74
2023/10/05 08:24:14;;;;;;;3.97;1.10;;;19.50;99.90;;;;;;5053191;28;20657;-74
2023/10/05 08:26:41;;;;;;;4.93;2.00;;;19.80;99.90;;;;;;5065158;28;20995;-73
2023/10/05 08:29:07;;;;;;;3.57;1.77;;;20.20;99.90;;;;;;5054491;28;20587;-74
2023/10/05 08:31:33;;;;;;;4.83;1.23;;;20.60;99.90;;;;;;5036386;28;20626;-74
2023/10/05 08:34:03;;;;;;;4.73;1.23;;;21.10;99.90;;;;;;5052988;28;20219;-73
2023/10/05 08:36:30;;;;;;;3.90;1.67;;;21.50;99.90;;;;;;5070902;28;20583;-74
2023/10/05 08:38:56;;;;;;;3.60;1.17;;;22.00;99.90;;;;;;5053099;28;20948;-74
2023/10/05 08:41:31;;;;;;;5.10;1.37;;;22.40;99.90;;;;;;5060574;28;20583;-74
2023/10/05 08:43:59;;;;;;;7.20;1.57;;;22.80;99.90;;;;;;5051604;28;20219;-73
2023/10/05 08:46:27;;;;;;;4.23;1.70;;;23.40;99.90;;;;;;5052731;28;20678;-74
2023/10/05 08:48:55;;;;;;;3.20;1.13;;;24.00;99.90;;;;;;5052787;28;20949;-74
2023/10/05 08:51:24;;;;;;;6.87;1.23;;;24.40;99.90;;;;;;5063134;28;20668;-74
2023/10/05 08:53:54;;;;;;;5.87;1.83;;;24.70;99.90;;;;;;5052808;28;20697;-73
2023/10/05 08:56:22;;;;;;;6.03;2.33;;;24.70;99.90;;;;;;5070558;28;20583;-75
2023/10/05 08:58:49;;;;;;;5.83;1.70;;;24.70;99.90;;;;;;5070743;28;20579;-74
2023/10/05 09:01:24;;;;;;;5.07;1.23;;;24.60;99.90;;;;;;5035688;28;20750;-75
2023/10/05 09:03:53;;;;;;;6.07;1.57;;;24.40;99.90;;;;;;5036747;28;20970;-74
2023/10/05 09:06:24;;;;;;;4.47;1.57;;;24.10;99.90;;;;;;5036636;28;20578;-75
2023/10/05 09:11:31;;;;;;;7.53;1.17;;;23.60;99.90;;;;;;5027478;28;20627;-74
2023/10/05 09:14:12;;;;;;;5.33;1.87;;;23.30;99.90;;;;;;5032511;28;20681;-74
2023/10/05 09:16:41;;;;;;;6.77;1.90;;;23.00;99.90;;;;;;5046855;28;20723;-74
2023/10/05 09:19:13;;;;;;;5.43;1.77;;;22.80;99.90;;;;;;5052538;28;21155;-74
2023/10/05 09:21:44;;;;;;;5.53;1.73;;;22.70;99.90;;;;;;5046427;28;20622;-74
2023/10/05 09:24:21;;;;;;;4.60;1.53;;;22.50;99.90;;;;;;5069272;28;21183;-74
2023/10/05 09:27:20;;;;;;;4.90;1.43;;;22.40;99.90;;;;;;5070483;28;20582;-74
2023/10/05 09:29:48;;;;;;;4.63;1.80;;;22.30;99.90;;;;;;5052685;28;20640;-74
2023/10/05 09:32:25;;;;;;;6.77;2.80;;;22.20;99.90;;;;;;5052549;28;20779;-74
2023/10/05 09:34:55;;;;;;;6.70;2.70;;;22.00;99.90;;;;;;5044984;28;20633;-74
2023/10/05 09:37:26;;;;;;;7.70;2.40;;;21.90;99.90;;;;;;5054422;28;20586;-74
2023/10/05 09:39:59;;;;;;;4.63;1.87;;;21.80;99.90;;;;;;5035981;28;20614;-74
2023/10/05 09:42:26;;;;;;;3.87;1.17;;;21.70;99.90;;;;;;5050887;28;20591;-74
2023/10/05 09:44:57;;;;;;;4.60;2.43;;;21.60;99.90;;;;;;5050454;28;20728;-73
2023/10/05 09:47:32;;;;;;;5.40;1.40;;;21.50;99.90;;;;;;5054632;28;20585;-73
2023/10/05 09:50:09;;;;;;;4.80;1.50;;;21.40;99.90;;;;;;5043881;28;20673;-73
2023/10/05 09:52:37;;;;;;;5.93;1.17;;;21.30;99.90;;;;;;5029695;28;21257;-73
2023/10/05 09:55:07;;;;;;;5.73;1.83;;;21.20;99.90;;;;;;5052408;28;20577;-74
2023/10/05 09:57:41;;;;;;;5.63;1.30;;;21.10;99.90;;;;;;5070141;28;20629;-73
2023/10/05 10:00:29;;;;;;;5.40;1.00;;;21.00;99.90;;;;;;5070472;28;20681;-74
2023/10/05 10:03:00;;;;;;;5.73;1.17;;;21.00;99.90;;;;;;5070381;28;20621;-74
2023/10/05 10:05:49;;;;;;;3.47;1.10;;;20.90;99.90;;;;;;5052560;28;21143;-74
2023/10/05 10:08:30;;;;;;;4.73;1.60;;;20.80;99.90;;;;;;5043614;28;20583;-74
2023/10/05 10:11:17;;;;;;;5.93;1.30;;;20.80;99.90;;;;;;5043817;28;20579;-73
2023/10/05 10:14:00;;;;;;;4.40;1.50;;;20.80;99.90;;;;;;5039289;28;21228;-73
2023/10/05 10:16:28;;;;;;;3.20;1.57;;;20.80;99.90;;;;;;5065740;28;20588;-75
2023/10/05 10:19:04;;;;;;;5.93;2.20;;;20.80;99.90;;;;;;5049393;28;20978;-74
2023/10/05 10:21:35;;;;;;;4.03;1.20;;;20.80;99.90;;;;;;5041734;28;20590;-75
2023/10/05 10:24:20;;;;;;;5.73;1.90;;;20.80;99.90;;;;;;5046942;28;20605;-76
2023/10/05 10:27:07;;;;;;;5.17;1.60;;;20.80;99.90;;;;;;5027489;28;20579;-76
2023/10/05 10:29:45;;;;;;;5.67;1.93;;;20.80;99.90;;;;;;5037469;28;20670;-76
2023/10/05 10:32:18;;;;;;;5.57;2.20;;;20.80;99.90;;;;;;5063876;22;20754;-76
2023/10/05 10:35:07;;;;;;;6.27;1.57;;;20.80;99.90;;;;;;5036649;28;20575;-76
2023/10/05 10:37:40;;;;;;;5.10;1.20;;;20.80;99.90;;;;;;5031775;28;20575;-76
2023/10/05 10:45:32;;;;;;;3.90;1.83;;;20.80;99.90;;;;;;5017585;28;20576;-77
2023/10/05 10:47:59;;;;;;;3.30;1.70;;;20.80;99.90;;;;;;5036368;28;21224;-76
2023/10/05 10:50:37;;;;;;;5.53;1.87;;;20.80;99.90;;;;;;5039387;28;20640;-77
2023/10/05 10:53:13;;;;;;;5.70;2.20;;;20.80;99.90;;;;;;5019480;28;20634;-76
2023/10/05 10:55:45;;;;;;;4.37;1.77;;;20.80;99.90;;;;;;5019422;28;20583;-77
2023/10/05 10:58:13;;;;;;;4.10;2.07;;;20.70;99.90;;;;;;5053566;28;20614;-77
2023/10/05 11:03:37;;;;;;;4.70;1.70;;;20.60;99.90;;;;;;5015978;28;20587;-78
2023/10/05 11:06:09;;;;;;;6.37;1.30;;;20.60;99.90;;;;;;5035780;28;21208;-78
2023/10/05 11:08:40;;;;;;;4.10;1.10;;;20.70;99.90;;;;;;5035979;28;20189;-75
2023/10/05 11:11:19;;;;;;;5.70;1.17;;;20.70;99.90;;;;;;5034922;28;20616;-75
2023/10/05 11:13:54;;;;;;;8.70;3.37;;;20.70;99.90;;;;;;5035289;28;20699;-75
2023/10/05 11:16:21;;;;;;;6.67;2.30;;;20.80;99.90;;;;;;5035114;28;20582;-75
2023/10/05 11:18:57;;;;;;;6.57;2.00;;;20.90;99.90;;;;;;5035095;28;20584;-75
2023/10/05 11:21:26;;;;;;;5.00;1.63;;;20.90;99.90;;;;;;5034979;28;20665;-75
2023/10/05 11:23:57;;;;;;;5.77;1.23;;;21.00;99.90;;;;;;5052433;28;20663;-76
2023/10/05 11:28:55;;;;;;;4.63;1.57;;;21.10;99.90;;;;;;5035762;28;21150;-78
2023/10/05 11:31:23;;;;;;;5.40;1.37;;;21.10;99.90;;;;;;5052493;28;20704;-77
2023/10/05 11:33:53;;;;;;;4.37;1.57;;;21.20;99.90;;;;;;5035246;28;21299;-76
2023/10/05 11:36:27;;;;;;;8.10;1.40;;;21.30;99.90;;;;;;5052819;28;20583;-77
2023/10/05 11:38:57;;;;;;;7.30;2.20;;;21.30;99.90;;;;;;5034887;28;20669;-77
2023/10/05 11:41:25;;;;;;;3.97;1.63;;;21.40;99.90;;;;;;5035067;28;20979;-77
2023/10/05 11:43:55;;;;;;;5.40;1.67;;;21.40;99.90;;;;;;5035094;28;20638;-76
2023/10/05 11:46:26;;;;;;;4.03;1.30;;;21.50;99.90;;;;;;5035272;28;20583;-76
2023/10/05 11:48:55;;;;;;;5.93;1.37;;;21.50;99.90;;;;;;5035062;28;20590;-77
2023/10/05 11:51:41;;;;;;;4.67;1.60;;;21.50;99.90;;;;;;5034463;28;20785;-76
2023/10/05 11:54:19;;;;;;;9.07;2.40;;;21.60;99.90;;;;;;5052603;28;20579;-76
2023/10/05 11:56:46;;;;;;;5.70;1.70;;;21.70;99.90;;;;;;5052582;28;20944;-76
2023/10/05 11:59:12;;;;;;;3.93;1.13;;;21.80;99.90;;;;;;5026922;28;20613;-77
2023/10/05 12:01:40;;;;;;;3.40;1.50;;;21.90;99.90;;;;;;5019326;28;21212;-77
2023/10/05 12:04:09;;;;;;;5.23;1.10;;;22.00;99.90;;;;;;5039334;28;20657;-77
2023/10/05 12:06:37;;;;;;;5.10;1.23;;;22.10;99.90;;;;;;5052313;28;20641;-77
2023/10/05 12:09:07;;;;;;;7.10;1.47;;;22.30;99.90;;;;;;5052349;28;20630;-77
2023/10/05 12:11:33;;;;;;;5.40;1.30;;;22.50;99.90;;;;;;5033954;28;20746;-77
2023/10/05 12:13:59;;;;;;;5.17;1.10;;;22.70;99.90;;;;;;5034381;28;20583;-76
2023/10/05 12:16:27;;;;;;;7.67;1.83;;;22.90;99.90;;;;;;5051871;28;20579;-77
2023/10/05 12:18:54;;;;;;;7.43;1.43;;;23.10;99.90;;;;;;5033648;28;20580;-77
2023/10/05 12:21:22;;;;;;;6.53;1.37;;;23.30;99.90;;;;;;5033815;28;20718;-76
2023/10/05 12:23:48;;;;;;;3.80;1.27;;;23.40;99.90;;;;;;5034254;28;20587;-77
2023/10/05 12:26:15;;;;;;;6.33;2.20;;;23.60;99.90;;;;;;5051634;28;21167;-77
2023/10/05 12:28:41;;;;;;;5.33;1.83;;;23.70;99.90;;;;;;5051951;28;20180;-77
2023/10/05 12:31:09;;;;;;;7.53;1.60;;;23.70;99.90;;;;;;5017165;28;20777;-77
2023/10/05 12:33:39;;;;;;;3.13;1.20;;;23.80;99.90;;;;;;5029949;28;20592;-77
2023/10/05 12:36:08;;;;;;;2.73;1.10;;;23.80;99.90;;;;;;5021686;28;20600;-77
2023/10/05 12:38:35;;;;;;;4.37;1.43;;;23.80;99.90;;;;;;5017178;28;20577;-77
2023/10/05 12:41:12;;;;;;;3.73;1.20;;;23.80;99.90;;;;;;5028482;28;20599;-77
2023/10/05 12:43:40;;;;;;;5.73;1.60;;;23.80;99.90;;;;;;5017375;28;20611;-77
2023/10/05 12:46:10;;;;;;;4.57;1.20;;;23.80;99.90;;;;;;5051190;28;20572;-79
2023/10/05 12:48:39;;;;;;;6.07;1.57;;;23.70;99.90;;;;;;5033471;28;20667;-77
2023/10/05 12:51:06;;;;;;;4.17;1.70;;;23.70;99.90;;;;;;5051570;28;20651;-77
2023/10/05 12:53:38;;;;;;;3.00;1.07;;;23.60;99.90;;;;;;5051381;28;20571;-77
2023/10/05 12:56:04;;;;;;;4.20;1.93;;;23.50;99.90;;;;;;5033775;28;20569;-77
2023/10/05 12:58:32;;;;;;;4.97;1.20;;;23.30;99.90;;;;;;5030338;28;20588;-76
2023/10/05 13:01:07;;;;;;;3.13;1.17;;;23.20;99.90;;;;;;5013912;28;20560;-76
2023/10/05 13:03:34;;;;;;;2.40;0.80;;;23.10;99.90;;;;;;5045042;28;20669;-78
2023/10/05 13:06:03;;;;;;;4.10;1.00;;;23.00;99.90;;;;;;5053161;28;20587;-78
2023/10/05 13:08:29;;;;;;;3.33;1.10;;;22.90;99.90;;;;;;5034415;28;20571;-77
2023/10/05 13:10:57;;;;;;;3.43;1.20;;;22.90;99.90;;;;;;5052466;28;20637;-77
2023/10/05 13:13:25;;;;;;;3.20;1.20;;;22.80;99.90;;;;;;5035196;28;20195;-77
2023/10/05 13:15:52;;;;;;;3.00;1.20;;;22.70;99.90;;;;;;5054448;28;20662;-77
2023/10/05 13:18:18;;;;;;;7.37;1.80;;;22.70;99.90;;;;;;5035843;28;20598;-77
2023/10/05 13:20:47;;;;;;;3.77;1.50;;;22.50;99.90;;;;;;5033595;28;20579;-77
2023/10/05 13:23:13;;;;;;;5.30;1.63;;;22.40;99.90;;;;;;5018257;28;20662;-77
2023/10/05 13:25:39;;;;;;;2.70;1.27;;;22.30;99.90;;;;;;5033974;28;20587;-77
2023/10/05 13:28:11;;;;;;;2.80;1.40;;;22.20;99.90;;;;;;5051764;28;20584;-77
2023/10/05 13:30:41;;;;;;;5.87;1.20;;;22.10;99.90;;;;;;5052428;28;20586;-77
2023/10/05 13:33:13;;;;;;;3.40;1.37;;;22.10;99.90;;;;;;5034106;28;20630;-77
2023/10/05 13:35:42;;;;;;;3.37;1.10;;;22.10;99.90;;;;;;5052011;28;21073;-77
2023/10/05 13:38:17;;;;;;;5.20;1.77;;;22.00;99.90;;;;;;5018985;28;20579;-77